Time;durP1;ratioP1;P1;durP2;ratioP2;P2;SDS_P1;SDS_P2;PMS_P1;PMS_P2;Temp;Humidity;BMP_temperature;BMP_pressure;BME280_temperature;BME280_humidity;BME280_pressure;Samples;Min_cycle;Max_cycle;Signal;HPM_P1;HPM_P2
2023/04/25 00:00:08;;;;;;;2.88;2.25;;;9.10;99.90;;;;;;6138757;23;20199;-70
2023/04/25 00:02:35;;;;;;;2.25;2.03;;;9.10;99.90;;;;;;6121963;23;20258;-70
2023/04/25 00:05:04;;;;;;;2.50;1.85;;;9.10;99.90;;;;;;6133048;23;20216;-70
2023/04/25 00:07:32;;;;;;;2.38;2.17;;;9.10;99.90;;;;;;6142212;23;20221;-70
2023/04/25 00:10:00;;;;;;;2.38;2.20;;;9.10;99.90;;;;;;6133315;23;20275;-70
2023/04/25 00:12:28;;;;;;;2.33;2.13;;;9.10;99.90;;;;;;6129418;23;20183;-70
2023/04/25 00:14:57;;;;;;;2.80;2.60;;;9.10;99.90;;;;;;6127067;23;20187;-70
2023/04/25 00:17:24;;;;;;;3.00;2.70;;;9.10;99.90;;;;;;6146578;23;20232;-70
2023/04/25 00:19:52;;;;;;;2.60;2.40;;;9.10;99.90;;;;;;6141182;23;20203;-70
2023/04/25 00:22:19;;;;;;;3.00;2.70;;;9.10;99.90;;;;;;6139034;23;20183;-70
2023/04/25 00:24:46;;;;;;;3.00;2.80;;;9.10;99.90;;;;;;6138707;23;20282;-70
2023/04/25 00:27:15;;;;;;;3.13;2.80;;;9.00;99.90;;;;;;6128175;23;20214;-69
2023/04/25 00:29:42;;;;;;;3.15;2.95;;;8.90;99.90;;;;;;6133222;23;20646;-70
2023/04/25 00:32:09;;;;;;;3.20;3.00;;;8.90;99.90;;;;;;6129475;23;20186;-70
2023/04/25 00:34:36;;;;;;;3.78;3.40;;;9.10;99.90;;;;;;6139908;23;20190;-70
2023/04/25 00:37:03;;;;;;;3.88;3.60;;;8.80;99.90;;;;;;6132673;23;20191;-70
2023/04/25 00:39:31;;;;;;;3.75;3.45;;;8.80;99.90;;;;;;6124801;23;20252;-69
2023/04/25 00:41:59;;;;;;;3.83;3.63;;;8.70;99.90;;;;;;6140693;23;20199;-70
2023/04/25 00:44:29;;;;;;;3.70;3.40;;;9.00;99.90;;;;;;6131813;23;20190;-70
2023/04/25 00:46:56;;;;;;;3.45;3.20;;;8.70;99.90;;;;;;6140263;23;20213;-70
2023/04/25 00:49:23;;;;;;;2.90;2.70;;;8.70;99.90;;;;;;6140021;23;20225;-70
2023/04/25 00:51:50;;;;;;;3.10;2.90;;;8.70;99.90;;;;;;6137742;23;20236;-70
2023/04/25 00:54:18;;;;;;;3.03;2.83;;;8.70;99.90;;;;;;6133734;23;20231;-70
2023/04/25 00:56:46;;;;;;;3.35;3.05;;;8.70;99.90;;;;;;6137167;23;20268;-71
2023/04/25 00:59:13;;;;;;;2.90;2.70;;;8.80;99.90;;;;;;6130855;23;20208;-70
2023/04/25 01:01:42;;;;;;;3.00;2.80;;;8.80;99.90;;;;;;6139146;23;20186;-70
2023/04/25 01:04:10;;;;;;;3.70;3.10;;;8.80;99.90;;;;;;6141998;23;20217;-70
2023/04/25 01:06:37;;;;;;;3.70;3.40;;;8.80;99.90;;;;;;6134288;23;20221;-70
2023/04/25 01:09:05;;;;;;;3.80;3.40;;;8.80;99.90;;;;;;6139915;23;20202;-70
2023/04/25 01:11:32;;;;;;;3.15;2.95;;;8.70;99.90;;;;;;6131620;23;20188;-70
2023/04/25 01:13:59;;;;;;;3.28;2.92;;;8.80;99.90;;;;;;6135122;23;20198;-70
2023/04/25 01:16:26;;;;;;;3.20;3.00;;;8.70;99.90;;;;;;6133958;23;20719;-70
2023/04/25 01:18:55;;;;;;;3.30;3.00;;;8.80;99.90;;;;;;6132707;23;21578;-70
2023/04/25 01:21:26;;;;;;;2.95;2.75;;;8.70;99.90;;;;;;6122496;23;20683;-70
2023/04/25 01:23:54;;;;;;;2.97;2.78;;;8.70;99.90;;;;;;6129782;23;20190;-70
2023/04/25 01:26:22;;;;;;;3.35;3.15;;;8.70;99.90;;;;;;6124425;23;20258;-70
2023/04/25 01:28:49;;;;;;;3.20;2.90;;;8.70;99.90;;;;;;6135878;23;20272;-70
2023/04/25 01:31:18;;;;;;;2.95;2.75;;;8.70;99.90;;;;;;6136448;23;20285;-70
2023/04/25 01:33:45;;;;;;;3.63;3.13;;;8.70;99.90;;;;;;6136579;23;20189;-70
2023/04/25 01:36:13;;;;;;;3.30;3.00;;;8.70;99.90;;;;;;6136421;23;20265;-70
2023/04/25 01:38:43;;;;;;;3.28;2.80;;;8.70;99.90;;;;;;6136120;23;20502;-70
2023/04/25 01:41:10;;;;;;;3.10;2.90;;;8.70;99.90;;;;;;6135419;23;20281;-69
2023/04/25 01:43:37;;;;;;;3.50;3.22;;;8.70;99.90;;;;;;6137914;23;20276;-70
2023/04/25 01:46:05;;;;;;;3.92;3.53;;;8.70;99.90;;;;;;6136506;23;20545;-70
2023/04/25 01:48:32;;;;;;;3.58;2.90;;;8.70;99.90;;;;;;6132661;23;20879;-70
2023/04/25 01:50:59;;;;;;;3.38;3.08;;;8.70;99.90;;;;;;6140237;23;20241;-70
2023/04/25 01:53:27;;;;;;;3.55;3.30;;;8.70;99.90;;;;;;6140059;23;20589;-70
2023/04/25 01:55:55;;;;;;;3.90;3.00;;;8.70;99.90;;;;;;6137917;23;20270;-70
2023/04/25 01:58:22;;;;;;;3.40;3.10;;;8.70;99.90;;;;;;6140552;23;20541;-69
2023/04/25 02:00:49;;;;;;;3.47;3.20;;;8.60;99.90;;;;;;6124674;23;20731;-69
2023/04/25 02:03:16;;;;;;;3.00;2.80;;;8.60;99.90;;;;;;6136034;23;20272;-70
2023/04/25 02:05:43;;;;;;;3.40;3.20;;;8.50;99.90;;;;;;6137790;23;20201;-69
2023/04/25 02:08:10;;;;;;;3.30;3.00;;;8.50;99.90;;;;;;6133569;23;20268;-70
2023/04/25 02:10:37;;;;;;;3.90;3.50;;;8.50;99.90;;;;;;6126494;23;20234;-69
2023/04/25 02:13:06;;;;;;;4.32;3.60;;;8.50;99.90;;;;;;6133782;23;20183;-70
2023/04/25 02:15:33;;;;;;;4.05;3.25;;;8.40;99.90;;;;;;6138408;23;20216;-70
2023/04/25 02:18:00;;;;;;;3.58;3.28;;;8.40;99.90;;;;;;6135102;23;20191;-70
2023/04/25 02:20:30;;;;;;;3.72;3.17;;;8.40;99.90;;;;;;6132813;23;20279;-70
2023/04/25 02:22:57;;;;;;;3.63;3.33;;;8.40;99.90;;;;;;6130671;23;20217;-70
2023/04/25 02:25:24;;;;;;;4.03;3.20;;;8.40;99.90;;;;;;6142656;23;20189;-70
2023/04/25 02:27:52;;;;;;;4.32;3.78;;;8.40;99.90;;;;;;6141009;23;20208;-70
2023/04/25 02:30:20;;;;;;;3.42;3.20;;;8.40;99.90;;;;;;6135786;23;20199;-70
2023/04/25 02:32:47;;;;;;;3.40;3.10;;;8.50;99.90;;;;;;6127078;23;20599;-70
2023/04/25 02:35:14;;;;;;;3.53;3.20;;;8.50;99.90;;;;;;6132132;23;20594;-70
2023/04/25 02:37:43;;;;;;;3.38;3.10;;;8.50;99.90;;;;;;6137001;23;20193;-70
2023/04/25 02:40:10;;;;;;;3.67;3.38;;;8.50;99.90;;;;;;6142825;23;20206;-69
2023/04/25 02:42:37;;;;;;;3.95;3.65;;;8.50;99.90;;;;;;6130391;23;20712;-70
2023/04/25 02:45:05;;;;;;;4.00;3.60;;;8.50;99.90;;;;;;6144680;23;20213;-70
2023/04/25 02:47:34;;;;;;;4.03;3.72;;;8.50;99.90;;;;;;6138920;23;20268;-70
2023/04/25 02:50:00;;;;;;;3.95;3.65;;;8.50;99.90;;;;;;6141649;23;20216;-70
2023/04/25 02:52:28;;;;;;;4.10;3.70;;;8.40;99.90;;;;;;6137602;23;20687;-70
2023/04/25 02:54:55;;;;;;;4.20;3.80;;;8.40;99.90;;;;;;6138989;23;20661;-69
2023/04/25 02:57:22;;;;;;;3.53;3.22;;;8.40;99.90;;;;;;6130366;23;20216;-69
2023/04/25 02:59:49;;;;;;;3.55;3.25;;;8.40;99.90;;;;;;6130624;23;20277;-70
2023/04/25 03:02:16;;;;;;;3.50;3.20;;;8.40;99.90;;;;;;6137825;23;20195;-70
2023/04/25 03:04:44;;;;;;;4.32;3.45;;;8.40;99.90;;;;;;6125391;23;20187;-69
2023/04/25 03:07:12;;;;;;;3.95;3.63;;;8.40;99.90;;;;;;6128737;23;20242;-70
2023/04/25 03:09:39;;;;;;;3.72;3.42;;;8.40;99.90;;;;;;6130019;23;20211;-70
2023/04/25 03:12:06;;;;;;;3.70;3.40;;;8.40;99.90;;;;;;6128287;23;20269;-70
2023/04/25 03:14:34;;;;;;;3.72;3.42;;;8.40;99.90;;;;;;6130156;23;20209;-70
2023/04/25 03:17:01;;;;;;;3.40;3.20;;;8.40;99.90;;;;;;6138025;23;20632;-70
2023/04/25 03:19:28;;;;;;;3.40;3.10;;;8.40;99.90;;;;;;6134687;23;20200;-70
2023/04/25 03:21:56;;;;;;;4.15;3.70;;;8.40;99.90;;;;;;6133255;23;20561;-70
2023/04/25 03:24:23;;;;;;;4.13;3.60;;;8.40;99.90;;;;;;6135294;23;20280;-70
2023/04/25 03:26:50;;;;;;;3.95;3.53;;;8.40;99.90;;;;;;6143966;23;20219;-69
2023/04/25 03:29:18;;;;;;;3.53;3.33;;;8.50;99.90;;;;;;6133863;23;20238;-70
2023/04/25 03:31:45;;;;;;;3.92;3.53;;;8.50;99.90;;;;;;6136141;23;20186;-69
2023/04/25 03:34:14;;;;;;;4.07;3.78;;;8.50;99.90;;;;;;6136396;23;20527;-70
2023/04/25 03:36:41;;;;;;;4.43;3.55;;;8.50;99.90;;;;;;6134447;23;20204;-70
2023/04/25 03:39:10;;;;;;;4.32;3.92;;;8.50;99.90;;;;;;6140964;23;20250;-69
2023/04/25 03:41:37;;;;;;;4.88;3.83;;;8.50;99.90;;;;;;6136696;23;20221;-69
2023/04/25 03:44:04;;;;;;;4.00;3.70;;;8.50;99.90;;;;;;6142134;23;20186;-69
2023/04/25 03:46:31;;;;;;;4.13;3.83;;;8.50;99.90;;;;;;6139999;23;20251;-70
2023/04/25 03:48:59;;;;;;;4.10;3.80;;;8.50;99.90;;;;;;6139250;23;20248;-70
2023/04/25 03:51:26;;;;;;;4.63;4.22;;;8.40;99.90;;;;;;6138917;23;20269;-70
2023/04/25 03:53:53;;;;;;;3.92;3.60;;;8.40;99.90;;;;;;6134762;23;20223;-69
2023/04/25 03:56:21;;;;;;;6.03;3.90;;;8.40;99.90;;;;;;6129826;23;20305;-70
2023/04/25 03:58:49;;;;;;;4.25;3.85;;;8.40;99.90;;;;;;6122344;23;20590;-70
2023/04/25 04:01:16;;;;;;;5.20;4.70;;;8.40;99.90;;;;;;6136785;23;20217;-70
2023/04/25 04:03:43;;;;;;;4.75;4.30;;;8.30;99.90;;;;;;6145047;23;20188;-70
2023/04/25 04:06:10;;;;;;;5.30;4.80;;;8.30;99.90;;;;;;6136073;23;20197;-70
2023/04/25 04:08:37;;;;;;;4.88;4.47;;;8.30;99.90;;;;;;6128214;23;20310;-70
2023/04/25 04:11:04;;;;;;;5.55;4.05;;;8.30;99.90;;;;;;6136769;23;20546;-70
2023/04/25 04:13:33;;;;;;;5.53;4.57;;;8.30;99.90;;;;;;6136973;23;20650;-70
2023/04/25 04:16:00;;;;;;;4.60;4.20;;;8.30;99.90;;;;;;6129645;23;20205;-70
2023/04/25 04:18:27;;;;;;;5.43;4.47;;;8.20;99.90;;;;;;6138967;23;20228;-70
2023/04/25 04:20:54;;;;;;;6.15;5.65;;;8.20;99.90;;;;;;6127111;23;20220;-71
2023/04/25 04:23:22;;;;;;;5.28;4.80;;;8.20;99.90;;;;;;6141805;23;20185;-70
2023/04/25 04:25:49;;;;;;;5.25;4.78;;;8.20;99.90;;;;;;6129179;23;20196;-70
2023/04/25 04:28:17;;;;;;;5.43;4.97;;;8.20;99.90;;;;;;6143886;23;20227;-70
2023/04/25 04:30:46;;;;;;;5.55;5.05;;;8.10;99.90;;;;;;6139298;23;20263;-73
2023/04/25 04:33:14;;;;;;;5.55;5.00;;;8.10;99.90;;;;;;6142752;23;20187;-67
2023/04/25 04:35:42;;;;;;;5.05;4.60;;;8.10;99.90;;;;;;6141727;23;20200;-69
2023/04/25 04:38:10;;;;;;;5.60;5.10;;;8.20;99.90;;;;;;6133493;23;20196;-69
2023/04/25 04:40:37;;;;;;;5.60;5.20;;;8.30;99.90;;;;;;6128567;23;20205;-69
2023/04/25 04:43:05;;;;;;;5.90;5.40;;;8.30;99.90;;;;;;6123772;23;20194;-78
2023/04/25 04:45:33;;;;;;;5.30;4.90;;;8.30;99.90;;;;;;6126305;23;20220;-77
2023/04/25 04:48:01;;;;;;;5.00;4.57;;;8.40;99.90;;;;;;6128132;23;20211;-69
2023/04/25 04:50:29;;;;;;;5.00;4.70;;;8.40;99.90;;;;;;6134812;23;20205;-70
2023/04/25 04:52:56;;;;;;;5.20;4.80;;;8.50;99.90;;;;;;6127308;23;20282;-70
2023/04/25 04:55:22;;;;;;;5.70;5.20;;;8.50;99.90;;;;;;6127311;23;20269;-69
2023/04/25 04:57:50;;;;;;;5.13;4.72;;;8.60;99.90;;;;;;6131202;23;20198;-69
2023/04/25 05:00:17;;;;;;;5.47;5.07;;;8.60;99.90;;;;;;6133119;23;20237;-70
2023/04/25 05:02:44;;;;;;;5.15;4.75;;;8.60;99.90;;;;;;6129769;23;20203;-70
2023/04/25 05:05:13;;;;;;;5.20;4.70;;;8.60;99.90;;;;;;6119239;23;20225;-69
2023/04/25 05:07:40;;;;;;;5.85;5.35;;;8.70;99.90;;;;;;6129926;23;20662;-70
2023/04/25 05:10:08;;;;;;;5.57;5.18;;;8.70;99.90;;;;;;6128999;23;20252;-69
2023/04/25 05:12:35;;;;;;;5.80;5.30;;;8.70;99.90;;;;;;6143204;23;20269;-69
2023/04/25 05:15:02;;;;;;;5.40;4.88;;;8.80;99.90;;;;;;6143316;23;20605;-69
2023/04/25 05:17:29;;;;;;;6.15;5.55;;;8.80;99.90;;;;;;6127451;23;20197;-70
2023/04/25 05:19:57;;;;;;;6.10;5.00;;;8.80;99.90;;;;;;6140153;23;20285;-70
2023/04/25 05:22:25;;;;;;;5.72;5.20;;;8.90;99.90;;;;;;6129224;23;20214;-70
2023/04/25 05:24:52;;;;;;;6.03;5.53;;;9.00;99.90;;;;;;6134830;23;20648;-69
2023/04/25 05:27:19;;;;;;;5.65;5.15;;;9.00;99.90;;;;;;6133949;23;20186;-69
2023/04/25 05:29:46;;;;;;;5.82;5.32;;;9.10;99.90;;;;;;6132820;23;20229;-69
2023/04/25 05:32:13;;;;;;;5.53;5.05;;;9.20;99.90;;;;;;6131302;23;20361;-70
2023/04/25 05:34:41;;;;;;;5.70;5.18;;;9.20;99.90;;;;;;6130442;23;20240;-70
2023/04/25 05:37:08;;;;;;;5.60;4.90;;;9.30;99.90;;;;;;6136340;23;20190;-70
2023/04/25 05:39:37;;;;;;;5.18;4.78;;;9.30;99.90;;;;;;6136519;23;20217;-69
2023/04/25 05:42:04;;;;;;;4.80;4.40;;;9.30;99.90;;;;;;6135256;23;20187;-70
2023/04/25 05:44:31;;;;;;;5.30;4.90;;;9.20;99.90;;;;;;6132169;23;20540;-69
2023/04/25 05:46:58;;;;;;;5.25;4.82;;;9.10;99.90;;;;;;6129770;23;20205;-70
2023/04/25 05:49:26;;;;;;;5.70;5.20;;;9.10;99.90;;;;;;6140319;23;20237;-69
2023/04/25 05:51:53;;;;;;;5.70;5.20;;;9.00;99.90;;;;;;6133262;23;20188;-69
2023/04/25 05:54:20;;;;;;;4.63;4.22;;;9.00;99.90;;;;;;6138304;23;20221;-69
2023/04/25 05:56:48;;;;;;;4.80;4.40;;;8.90;99.90;;;;;;6140006;23;20274;-69
2023/04/25 05:59:15;;;;;;;5.10;4.70;;;8.80;99.90;;;;;;6131546;23;20295;-69
2023/04/25 06:01:42;;;;;;;5.25;4.75;;;8.90;99.90;;;;;;6136438;23;20217;-69
2023/04/25 06:04:10;;;;;;;5.28;4.88;;;9.00;99.90;;;;;;6134985;23;20222;-69
2023/04/25 06:06:37;;;;;;;5.20;4.78;;;9.00;99.90;;;;;;6129309;23;20269;-69
2023/04/25 06:09:04;;;;;;;5.30;4.80;;;9.10;99.90;;;;;;6131813;23;20211;-69
2023/04/25 06:11:31;;;;;;;4.78;4.47;;;9.20;99.90;;;;;;6142026;23;20243;-69
2023/04/25 06:14:00;;;;;;;4.88;4.47;;;9.10;99.90;;;;;;6140135;23;20198;-69
2023/04/25 06:16:26;;;;;;;5.65;5.13;;;9.20;99.90;;;;;;6134451;23;20219;-69
2023/04/25 06:18:54;;;;;;;4.78;4.38;;;9.40;99.90;;;;;;6133985;23;20221;-69
2023/04/25 06:21:21;;;;;;;5.05;4.68;;;9.20;99.90;;;;;;6135867;23;20183;-70
2023/04/25 06:23:48;;;;;;;5.43;4.40;;;9.20;99.90;;;;;;6131055;23;20296;-69
2023/04/25 06:26:15;;;;;;;4.75;4.45;;;9.10;99.90;;;;;;6125872;23;20240;-69
2023/04/25 06:28:42;;;;;;;5.03;4.63;;;9.10;99.90;;;;;;6140907;23;20723;-69
2023/04/25 06:31:10;;;;;;;5.10;4.70;;;9.10;99.90;;;;;;6137021;23;20587;-69
2023/04/25 06:33:37;;;;;;;4.50;4.10;;;9.20;99.90;;;;;;6133916;23;20550;-69
2023/04/25 06:36:05;;;;;;;5.40;5.00;;;9.20;99.90;;;;;;6126292;23;20189;-69
2023/04/25 06:38:32;;;;;;;5.15;4.75;;;9.20;99.90;;;;;;6139839;23;20209;-69
2023/04/25 06:40:59;;;;;;;5.30;4.90;;;9.20;99.90;;;;;;6134406;23;20191;-70
2023/04/25 06:43:26;;;;;;;4.40;4.10;;;9.40;99.90;;;;;;6141527;23;20245;-70
2023/04/25 06:45:53;;;;;;;5.50;5.10;;;9.50;99.90;;;;;;6131878;23;20252;-70
2023/04/25 06:48:21;;;;;;;4.80;4.40;;;9.60;99.90;;;;;;6135448;23;20225;-70
2023/04/25 06:50:48;;;;;;;5.20;4.80;;;9.80;99.90;;;;;;6134760;23;20244;-69
2023/04/25 06:53:15;;;;;;;5.07;4.68;;;9.90;99.90;;;;;;6132342;23;20240;-69
2023/04/25 06:55:43;;;;;;;3.65;3.45;;;9.90;99.90;;;;;;6133982;23;20179;-70
2023/04/25 06:58:10;;;;;;;3.70;3.40;;;10.10;99.90;;;;;;6129908;23;20269;-71
2023/04/25 07:00:37;;;;;;;4.75;4.30;;;10.20;99.90;;;;;;6135854;23;20187;-69
2023/04/25 07:03:04;;;;;;;4.30;4.00;;;10.40;99.90;;;;;;6130931;23;20615;-70
2023/04/25 07:05:32;;;;;;;3.95;3.65;;;10.50;99.90;;;;;;6141370;23;20182;-69
2023/04/25 07:08:00;;;;;;;5.22;4.82;;;10.60;99.90;;;;;;6132437;23;20210;-69
2023/04/25 07:10:27;;;;;;;4.10;3.80;;;10.60;99.90;;;;;;6130423;23;20664;-69
2023/04/25 07:12:54;;;;;;;4.20;3.70;;;10.70;99.90;;;;;;6133118;23;20657;-69
2023/04/25 07:15:21;;;;;;;4.90;3.90;;;10.80;99.90;;;;;;6134186;23;20265;-70
2023/04/25 07:17:48;;;;;;;4.47;4.07;;;10.80;99.90;;;;;;6137627;23;20266;-69
2023/04/25 07:20:16;;;;;;;4.80;4.40;;;10.80;99.90;;;;;;6144516;23;20211;-69
2023/04/25 07:22:44;;;;;;;4.70;4.40;;;10.80;99.90;;;;;;6141561;23;20270;-70
2023/04/25 07:25:11;;;;;;;4.72;4.32;;;10.70;99.90;;;;;;6131121;23;20278;-70
2023/04/25 07:27:39;;;;;;;4.78;4.35;;;10.60;99.90;;;;;;6120460;23;20195;-69
2023/04/25 07:30:07;;;;;;;5.30;4.80;;;10.60;99.90;;;;;;6128549;23;20215;-69
2023/04/25 07:32:34;;;;;;;5.97;5.47;;;10.60;99.90;;;;;;6132175;23;20184;-70
2023/04/25 07:35:01;;;;;;;5.50;5.03;;;10.50;99.90;;;;;;6135911;23;20501;-69
2023/04/25 07:37:28;;;;;;;4.60;4.30;;;10.50;99.90;;;;;;6132143;23;20270;-69
2023/04/25 07:39:57;;;;;;;4.70;4.30;;;10.50;99.90;;;;;;6132829;23;20210;-70
2023/04/25 07:42:24;;;;;;;6.38;5.68;;;10.50;99.90;;;;;;6130157;23;20202;-70
2023/04/25 07:44:51;;;;;;;5.40;5.00;;;10.50;99.90;;;;;;6133706;23;20190;-69
2023/04/25 07:47:19;;;;;;;5.05;4.65;;;10.50;99.90;;;;;;6133044;23;20638;-70
2023/04/25 07:49:46;;;;;;;5.63;5.13;;;10.50;99.90;;;;;;6137299;23;20417;-69
2023/04/25 07:52:13;;;;;;;5.53;5.03;;;10.40;99.90;;;;;;6136193;23;20175;-69
2023/04/25 07:54:41;;;;;;;5.38;4.97;;;10.40;99.90;;;;;;6137879;23;20252;-69
2023/04/25 07:57:09;;;;;;;6.68;6.18;;;10.40;99.90;;;;;;6131345;23;20179;-70
2023/04/25 07:59:36;;;;;;;6.53;5.95;;;10.40;99.90;;;;;;6129190;23;20203;-70
2023/04/25 08:02:04;;;;;;;5.78;5.38;;;10.40;99.90;;;;;;6145438;23;20187;-70
2023/04/25 08:04:30;;;;;;;7.65;7.03;;;10.40;99.90;;;;;;6130073;23;20214;-70
2023/04/25 08:06:57;;;;;;;7.28;6.65;;;10.40;99.90;;;;;;6129883;23;20244;-70
2023/04/25 08:09:25;;;;;;;6.40;5.90;;;10.40;99.90;;;;;;6134419;23;20901;-70
2023/04/25 08:11:52;;;;;;;6.47;5.97;;;10.40;99.90;;;;;;6131851;23;20210;-70
2023/04/25 08:14:20;;;;;;;7.32;6.72;;;10.40;99.90;;;;;;6132133;23;20206;-70
2023/04/25 08:16:47;;;;;;;7.30;6.70;;;10.40;99.90;;;;;;6125433;23;20737;-70
2023/04/25 08:19:14;;;;;;;7.63;6.65;;;10.40;99.90;;;;;;6140256;23;20604;-70
2023/04/25 08:21:41;;;;;;;7.10;6.50;;;10.40;99.90;;;;;;6134152;23;20194;-70
2023/04/25 08:24:08;;;;;;;7.90;7.20;;;10.50;99.90;;;;;;6143202;23;20240;-70
2023/04/25 08:26:37;;;;;;;7.45;6.85;;;10.50;99.90;;;;;;6139001;23;20259;-70
2023/04/25 08:29:04;;;;;;;7.32;6.80;;;10.50;99.90;;;;;;6132363;23;20412;-70
2023/04/25 08:31:32;;;;;;;5.80;5.40;;;10.50;99.90;;;;;;6135076;23;20191;-70
2023/04/25 08:34:00;;;;;;;6.78;6.28;;;10.50;99.90;;;;;;6132838;23;20225;-71
2023/04/25 08:36:27;;;;;;;7.18;6.50;;;10.60;99.90;;;;;;6137541;23;20188;-71
2023/04/25 08:38:55;;;;;;;7.80;7.20;;;10.50;99.90;;;;;;6132776;23;20226;-70
2023/04/25 08:41:23;;;;;;;7.40;6.72;;;10.30;99.90;;;;;;6135785;23;20195;-70
2023/04/25 08:43:52;;;;;;;7.55;6.95;;;10.50;99.90;;;;;;6128112;23;20653;-71
2023/04/25 08:46:19;;;;;;;6.88;6.38;;;10.40;99.90;;;;;;6135617;23;20650;-71
2023/04/25 08:48:48;;;;;;;7.70;7.10;;;10.30;99.90;;;;;;6133760;23;20231;-70
2023/04/25 08:51:22;;;;;;;6.95;6.43;;;10.20;99.90;;;;;;6133019;23;20187;-70
2023/04/25 08:53:52;;;;;;;7.18;6.57;;;10.10;99.90;;;;;;6133010;23;20200;-70
2023/04/25 08:56:22;;;;;;;6.45;6.05;;;10.10;99.90;;;;;;6132745;23;20634;-70
2023/04/25 08:58:49;;;;;;;7.20;6.60;;;10.00;99.90;;;;;;6139180;23;20206;-70
2023/04/25 09:01:16;;;;;;;8.10;7.50;;;10.00;99.90;;;;;;6129896;23;20599;-69
2023/04/25 09:03:44;;;;;;;7.70;7.10;;;9.90;99.90;;;;;;6138431;23;20194;-69
2023/04/25 09:06:13;;;;;;;8.07;7.47;;;9.90;99.90;;;;;;6139367;23;20221;-69
2023/04/25 09:08:40;;;;;;;8.60;7.78;;;9.80;99.90;;;;;;6131690;23;20207;-69
2023/04/25 09:11:08;;;;;;;8.10;7.40;;;9.80;99.90;;;;;;6133687;23;20606;-69
2023/04/25 09:13:35;;;;;;;9.90;9.00;;;9.60;99.90;;;;;;6136861;23;20258;-70
2023/04/25 09:16:02;;;;;;;9.55;8.75;;;9.40;99.90;;;;;;6128965;23;20188;-69
2023/04/25 09:18:30;;;;;;;10.00;9.20;;;9.10;99.90;;;;;;6136500;23;20240;-70
2023/04/25 09:21:05;;;;;;;10.45;9.52;;;8.90;99.90;;;;;;6128952;23;20278;-70
2023/04/25 09:23:41;;;;;;;11.10;10.15;;;8.80;99.90;;;;;;6136280;23;20185;-70
2023/04/25 09:26:09;;;;;;;10.35;9.52;;;8.70;99.90;;;;;;6123021;23;20190;-70
2023/04/25 09:28:37;;;;;;;11.70;10.70;;;8.70;99.90;;;;;;6134912;23;20211;-70
2023/04/25 09:31:04;;;;;;;10.77;9.93;;;8.70;99.90;;;;;;6139209;23;20225;-70
2023/04/25 09:33:34;;;;;;;9.40;8.70;;;8.80;99.90;;;;;;6142128;23;20200;-70
2023/04/25 09:36:05;;;;;;;10.45;9.40;;;8.70;99.90;;;;;;6129595;23;20265;-69
2023/04/25 09:38:41;;;;;;;10.80;9.90;;;8.60;99.90;;;;;;6140044;23;20233;-70
2023/04/25 09:41:08;;;;;;;12.00;11.07;;;8.50;99.90;;;;;;6130536;23;20199;-70
2023/04/25 09:43:36;;;;;;;12.77;11.68;;;8.50;99.90;;;;;;6136977;23;20649;-70
2023/04/25 09:46:04;;;;;;;14.23;13.02;;;8.50;99.90;;;;;;6130822;23;20209;-70
2023/04/25 09:48:30;;;;;;;12.90;11.80;;;8.50;99.90;;;;;;6141532;23;20202;-72
2023/04/25 09:51:09;;;;;;;15.50;14.10;;;8.50;99.90;;;;;;6136699;23;20297;-71
2023/04/25 09:53:39;;;;;;;12.77;11.77;;;8.50;99.90;;;;;;6138529;23;20190;-71
2023/04/25 09:56:07;;;;;;;12.13;11.13;;;8.40;99.90;;;;;;6132203;23;20217;-71
2023/04/25 09:58:36;;;;;;;11.50;10.50;;;8.40;99.90;;;;;;6136388;23;20237;-72
2023/04/25 10:01:04;;;;;;;13.43;12.02;;;8.40;99.90;;;;;;6137380;23;20207;-72
2023/04/25 10:03:33;;;;;;;15.32;14.02;;;8.40;99.90;;;;;;6134167;23;20189;-71
2023/04/25 10:06:02;;;;;;;12.43;11.40;;;8.30;99.90;;;;;;6129134;23;20642;-71
2023/04/25 10:08:33;;;;;;;11.63;10.57;;;8.10;99.90;;;;;;6138658;23;20202;-71
2023/04/25 10:11:03;;;;;;;10.02;9.23;;;8.00;99.90;;;;;;6129719;23;20212;-71
2023/04/25 10:13:32;;;;;;;10.70;9.70;;;7.80;99.90;;;;;;6127500;23;20208;-71
2023/04/25 10:16:00;;;;;;;9.93;9.05;;;7.70;99.90;;;;;;6125579;23;20219;-70
2023/04/25 10:18:28;;;;;;;9.85;8.85;;;7.80;99.90;;;;;;6130033;23;20230;-71
2023/04/25 10:20:56;;;;;;;8.48;7.78;;;7.70;99.90;;;;;;6132917;23;20190;-70
2023/04/25 10:23:24;;;;;;;9.38;8.57;;;7.70;99.90;;;;;;6128151;23;20188;-70
2023/04/25 10:25:53;;;;;;;9.27;8.40;;;7.60;99.90;;;;;;6129579;23;20277;-70
2023/04/25 10:28:22;;;;;;;10.38;9.48;;;7.50;99.90;;;;;;6130850;23;20209;-70
2023/04/25 10:30:59;;;;;;;9.57;8.77;;;7.40;99.90;;;;;;6137538;23;20286;-71
2023/04/25 10:33:33;;;;;;;10.15;9.25;;;7.40;99.90;;;;;;6126597;23;20184;-70
2023/04/25 10:36:09;;;;;;;10.05;9.15;;;7.40;99.90;;;;;;6133283;23;20187;-70
2023/04/25 10:38:38;;;;;;;10.15;9.25;;;7.30;99.90;;;;;;6129377;23;20210;-70
2023/04/25 10:41:08;;;;;;;14.05;12.85;;;7.30;99.90;;;;;;6136509;23;20185;-71
2023/04/25 10:43:38;;;;;;;11.50;10.48;;;7.30;99.90;;;;;;6132006;23;20661;-70
2023/04/25 10:46:17;;;;;;;10.25;9.35;;;7.30;99.90;;;;;;6129143;23;20187;-71
2023/04/25 10:48:49;;;;;;;9.00;8.30;;;7.40;99.90;;;;;;6135894;23;20232;-71
2023/04/25 10:51:19;;;;;;;11.40;10.20;;;7.50;99.90;;;;;;6130373;23;20590;-71
2023/04/25 10:53:47;;;;;;;9.82;9.02;;;7.50;99.90;;;;;;6132173;23;20652;-71
2023/04/25 10:56:18;;;;;;;8.90;8.13;;;7.60;99.90;;;;;;6141149;23;20286;-71
2023/04/25 10:58:47;;;;;;;8.23;7.53;;;7.60;99.90;;;;;;6143047;23;20232;-70
2023/04/25 11:01:15;;;;;;;7.45;6.63;;;7.70;99.90;;;;;;6129302;23;20272;-70
2023/04/25 11:03:43;;;;;;;7.85;7.15;;;7.70;99.90;;;;;;6124186;23;20854;-71
2023/04/25 11:06:21;;;;;;;8.35;7.65;;;7.60;99.90;;;;;;6129579;23;20184;-70
2023/04/25 11:08:50;;;;;;;8.10;7.50;;;7.50;99.90;;;;;;6122967;23;20213;-72
2023/04/25 11:11:17;;;;;;;8.35;7.55;;;7.40;99.90;;;;;;6131501;23;20291;-74
2023/04/25 11:13:44;;;;;;;7.05;6.45;;;7.40;99.90;;;;;;6126159;23;20746;-72
2023/04/25 11:16:13;;;;;;;7.30;6.70;;;7.40;99.90;;;;;;6137092;23;20235;-72
2023/04/25 11:18:42;;;;;;;7.20;6.50;;;7.40;99.90;;;;;;6137097;23;20208;-72
2023/04/25 11:21:09;;;;;;;7.63;7.03;;;7.40;99.90;;;;;;6132512;23;20216;-73
2023/04/25 11:23:36;;;;;;;8.20;7.50;;;7.50;99.90;;;;;;6124246;23;20188;-72
2023/04/25 11:26:03;;;;;;;7.93;7.22;;;7.50;99.90;;;;;;6129073;23;20182;-71
2023/04/25 11:28:31;;;;;;;7.85;7.05;;;7.60;99.90;;;;;;6135141;23;20291;-71
2023/04/25 11:30:58;;;;;;;7.90;7.20;;;7.60;99.90;;;;;;6133394;23;20236;-71
2023/04/25 11:33:27;;;;;;;8.10;7.40;;;7.60;99.90;;;;;;6138826;23;20201;-71
2023/04/25 11:35:55;;;;;;;7.35;6.68;;;7.70;99.90;;;;;;6137047;23;20189;-71
2023/04/25 11:38:23;;;;;;;7.10;6.50;;;7.80;99.90;;;;;;6128491;23;20257;-75
2023/04/25 11:40:53;;;;;;;7.05;6.25;;;7.80;99.90;;;;;;6127038;23;20220;-73
2023/04/25 11:43:21;;;;;;;7.30;6.68;;;7.90;99.90;;;;;;6130832;23;21982;-72
2023/04/25 11:45:49;;;;;;;7.00;6.40;;;8.00;99.90;;;;;;6132205;23;20255;-72
2023/04/25 11:48:16;;;;;;;6.65;6.05;;;8.10;99.90;;;;;;6134423;23;20313;-72
2023/04/25 11:50:45;;;;;;;7.00;6.40;;;8.10;99.90;;;;;;6134813;23;20569;-72
2023/04/25 11:53:12;;;;;;;6.82;6.22;;;8.10;99.90;;;;;;6137532;23;20284;-71
2023/04/25 11:55:40;;;;;;;7.53;6.93;;;8.10;99.90;;;;;;6132186;23;20189;-72
2023/04/25 11:58:08;;;;;;;6.80;6.20;;;8.00;99.90;;;;;;6139749;23;20225;-71
2023/04/25 12:00:35;;;;;;;6.15;5.68;;;7.90;99.90;;;;;;6130586;23;20253;-71
2023/04/25 12:03:03;;;;;;;6.85;6.25;;;7.90;99.90;;;;;;6140981;23;20184;-71
2023/04/25 12:05:33;;;;;;;7.13;6.43;;;7.80;99.90;;;;;;6140401;23;20552;-71
2023/04/25 12:08:11;;;;;;;7.50;6.90;;;7.80;99.90;;;;;;6142225;23;20268;-71
2023/04/25 12:10:39;;;;;;;6.70;6.10;;;7.80;99.90;;;;;;6124310;23;20286;-72
2023/04/25 12:13:20;;;;;;;6.75;6.15;;;7.70;99.90;;;;;;6125275;23;20196;-72
2023/04/25 12:15:48;;;;;;;7.93;7.10;;;7.70;99.90;;;;;;6123729;23;20185;-72
2023/04/25 12:18:15;;;;;;;8.10;7.40;;;7.50;99.90;;;;;;6131518;23;20291;-72
2023/04/25 12:20:43;;;;;;;7.93;7.13;;;7.50;99.90;;;;;;6131980;23;20194;-72
2023/04/25 12:23:12;;;;;;;9.15;8.15;;;7.40;99.90;;;;;;6124672;23;20188;-72
2023/04/25 12:25:40;;;;;;;9.13;8.32;;;7.40;99.90;;;;;;6128853;23;20190;-72
2023/04/25 12:28:12;;;;;;;9.18;8.27;;;7.50;99.90;;;;;;6135679;23;20205;-71
2023/04/25 12:30:58;;;;;;;8.38;7.68;;;7.50;99.90;;;;;;6127586;23;20676;-72
2023/04/25 12:33:25;;;;;;;7.97;7.28;;;7.50;99.90;;;;;;6124575;23;20541;-72
2023/04/25 12:35:53;;;;;;;9.40;8.43;;;7.60;99.90;;;;;;6129563;23;20201;-72
2023/04/25 12:38:26;;;;;;;8.30;7.60;;;7.80;99.90;;;;;;6125450;23;20204;-72
2023/04/25 12:40:54;;;;;;;8.98;8.07;;;8.10;99.90;;;;;;6116833;23;20189;-72
2023/04/25 12:43:21;;;;;;;7.88;7.28;;;8.30;99.90;;;;;;6122933;23;20185;-72
2023/04/25 12:45:49;;;;;;;8.50;7.72;;;8.40;99.90;;;;;;6118759;23;20187;-72
2023/04/25 12:48:17;;;;;;;9.27;8.48;;;8.50;99.90;;;;;;6124098;23;20338;-72
2023/04/25 12:50:44;;;;;;;9.52;8.57;;;8.80;99.90;;;;;;6129167;23;20219;-73
2023/04/25 12:53:11;;;;;;;8.00;7.30;;;8.90;99.90;;;;;;6124934;23;20657;-72
2023/04/25 12:55:40;;;;;;;9.00;7.97;;;9.20;99.90;;;;;;6120496;23;20183;-72